Pagrindinis puslapis
METAR-TAF:

METAR-TAF

Oro uostai :

Brisbeno oro uostas

Brisbenas, Australija

platuma: 27-23S, ilguma: 153-06E, Aukštis: 4 m

Dabartinis oras

Ataskaita buvo paskelbta 25 minutes, ne 01:00 UTC
Vėjas 11 kt iš Vakarų
Temperatūra 23°C
Drėgmė 44%
Slėgis 1014 hPa
Matomumas 10 km arba daugiau
Mažai debesys ne aukštis 4500 ft

METAR: YBBN 170100Z 28011KT 9999 FEW045 23/10 Q1014

Laikas: 11:25 (01:25 UTC)

Prognozė

Ataskaita buvo paskelbta 2 valandos ir 10 minutes, ne 23:15 UTC
Prognozė galioja nuo 17 metu 00 UTC su 18 metu 06 UTC
Vėjas 18 kt iš Vakarų
Matomumas 10 km arba daugiau
nėra debesų žemiau 1500 m ir nėra kamuolinių lietaus debesų
Nuo 17 metu 1000 UTC
Vėjas 8 kt iš Šiaurės/Šiaurės Vakarų
Matomumas 10 km arba daugiau
nėra debesų žemiau 1500 m ir nėra kamuolinių lietaus debesų
Nuo 18 metu 0000 UTC
Vėjas 15 kt iš Vakarų/Pietvakarių su gūsio iki 25 kt
Matomumas 10 km arba daugiau
nėra debesų žemiau 1500 m ir nėra kamuolinių lietaus debesų

TAF: YBBN 162315Z 1700/1806 28018KT CAVOK FM171000 33008KT CAVOK FM180000 25015G25KT CAVOK

Orai ataskaitas ir orų prognozės (METAR, TAF).

turimą stotys yra geltonos ir raudonos taškus žemėlapyje.

Perkelti pele per norėdami pamatyti stoties vardą.

Tada spustelėkite, norėdami matyti oro stebėjimo ir prognozės.

Norėdami pakeisti žemėlapį: spustelėkite ant žalios mygtukų su juodo kryžiaus žemyn,; žalią mygtuką su brūkšneliu, jei norite nutolinti; arba žalių rodyklių gretimoms žemėlapius.


METAR-TAF: